Time;durP1;ratioP1;P1;durP2;ratioP2;P2;SDS_P1;SDS_P2;PMS_P1;PMS_P2;Temp;Humidity;BMP_temperature;BMP_pressure;BME280_temperature;BME280_humidity;BME280_pressure;Samples;Min_cycle;Max_cycle;Signal;HPM_P1;HPM_P2
2021/03/20 00:00:41;;;;;;;29.50;9.57;;;1.70;99.90;;;;;;2105946;28;20606;-69
2021/03/20 00:01:43;;;;;;;32.40;9.35;;;1.60;99.90;;;;;;2120157;28;20039;-69
2021/03/20 00:02:44;;;;;;;21.95;9.15;;;1.60;99.90;;;;;;2114195;28;20535;-69
2021/03/20 00:03:45;;;;;;;34.95;11.18;;;1.50;99.90;;;;;;2104202;28;20078;-70
2021/03/20 00:04:45;;;;;;;25.15;10.18;;;1.50;99.90;;;;;;2112699;28;20081;-69
2021/03/20 00:05:46;;;;;;;27.25;10.35;;;1.50;99.90;;;;;;2105861;28;20165;-70
2021/03/20 00:06:53;;;;;;;24.20;10.07;;;1.40;99.90;;;;;;2104448;28;20027;-69
2021/03/20 00:07:54;;;;;;;27.77;9.65;;;1.40;99.90;;;;;;2102867;28;20028;-69
2021/03/20 00:08:56;;;;;;;23.40;9.18;;;1.40;99.90;;;;;;2103281;28;20032;-69
2021/03/20 00:09:57;;;;;;;23.35;8.57;;;1.40;99.90;;;;;;2104133;28;20042;-69
2021/03/20 00:10:58;;;;;;;24.85;8.80;;;1.40;99.90;;;;;;2105839;28;20027;-70
2021/03/20 00:12:00;;;;;;;26.55;9.00;;;1.50;99.90;;;;;;2104073;28;20025;-69
2021/03/20 00:13:01;;;;;;;21.55;9.50;;;1.70;99.90;;;;;;2106658;28;20101;-70
2021/03/20 00:14:03;;;;;;;23.15;8.93;;;1.70;99.90;;;;;;2101663;28;20028;-70
2021/03/20 00:15:06;;;;;;;25.85;9.15;;;1.80;99.90;;;;;;2095089;28;20052;-69
2021/03/20 00:16:07;;;;;;;25.42;9.15;;;1.80;99.90;;;;;;2096981;28;20027;-70
2021/03/20 00:17:07;;;;;;;35.53;9.55;;;1.90;99.90;;;;;;2098274;28;20048;-70
2021/03/20 00:18:09;;;;;;;35.80;8.57;;;1.90;99.90;;;;;;2097965;28;20090;-69
2021/03/20 00:19:10;;;;;;;26.92;9.07;;;1.90;99.90;;;;;;2099162;28;20032;-69
2021/03/20 00:20:20;;;;;;;26.85;7.75;;;1.90;99.90;;;;;;2099597;28;20052;-69
2021/03/20 00:21:20;;;;;;;17.08;8.05;;;1.90;99.90;;;;;;2099192;28;20035;-69
2021/03/20 00:22:21;;;;;;;24.30;7.50;;;1.90;99.90;;;;;;2114292;28;20027;-69
2021/03/20 00:23:22;;;;;;;27.02;7.82;;;1.90;99.90;;;;;;2101879;28;20106;-70
2021/03/20 00:24:23;;;;;;;23.30;8.13;;;1.90;99.90;;;;;;2093211;28;20570;-69
2021/03/20 00:25:24;;;;;;;21.48;7.65;;;1.90;99.90;;;;;;2095233;28;20043;-69
2021/03/20 00:26:25;;;;;;;26.03;7.47;;;1.90;99.90;;;;;;2097253;28;20052;-69
2021/03/20 00:27:26;;;;;;;23.00;8.50;;;1.80;99.90;;;;;;2113923;28;20254;-69
2021/03/20 00:28:28;;;;;;;22.70;8.68;;;1.80;99.90;;;;;;2102072;28;20024;-69
2021/03/20 00:29:29;;;;;;;21.92;8.02;;;1.80;99.90;;;;;;2097426;28;20511;-70
2021/03/20 00:30:30;;;;;;;28.10;7.53;;;1.70;99.90;;;;;;2104536;28;20065;-70
2021/03/20 00:31:31;;;;;;;20.70;7.97;;;1.70;99.90;;;;;;2102073;28;20032;-70
2021/03/20 00:32:32;;;;;;;22.73;7.50;;;1.60;99.90;;;;;;2096607;28;20699;-70
2021/03/20 00:33:32;;;;;;;19.02;7.82;;;1.60;99.90;;;;;;2099491;28;20039;-70
2021/03/20 00:34:33;;;;;;;19.48;7.85;;;1.60;99.90;;;;;;2098398;28;20020;-70
2021/03/20 00:35:34;;;;;;;21.65;7.68;;;1.60;99.90;;;;;;2103982;28;20060;-69
2021/03/20 00:36:35;;;;;;;24.05;8.02;;;1.50;99.90;;;;;;2097370;28;20020;-71
2021/03/20 00:37:37;;;;;;;19.13;7.60;;;1.50;99.90;;;;;;2106155;28;20610;-69
2021/03/20 00:38:38;;;;;;;23.00;8.30;;;1.40;99.90;;;;;;2105159;28;21021;-69
2021/03/20 00:39:43;;;;;;;23.17;8.05;;;1.30;99.90;;;;;;2095041;28;20064;-70
2021/03/20 00:40:44;;;;;;;25.63;8.55;;;1.30;99.90;;;;;;2096988;28;20087;-69
2021/03/20 00:41:45;;;;;;;24.88;8.55;;;1.30;99.90;;;;;;2093695;28;20812;-69
2021/03/20 00:42:46;;;;;;;35.45;8.45;;;1.30;99.90;;;;;;2106283;28;20025;-69
2021/03/20 00:43:46;;;;;;;29.92;8.20;;;1.30;99.90;;;;;;2110115;28;20572;-69
2021/03/20 00:44:47;;;;;;;22.67;7.70;;;1.20;99.90;;;;;;2105865;28;20104;-69
2021/03/20 00:45:48;;;;;;;17.85;8.15;;;1.20;99.90;;;;;;2097523;28;20516;-68
2021/03/20 00:46:49;;;;;;;23.77;7.97;;;1.20;99.90;;;;;;2098494;28;20036;-69
2021/03/20 00:47:50;;;;;;;20.17;7.38;;;1.10;99.90;;;;;;2097046;28;20028;-69
2021/03/20 00:48:50;;;;;;;25.58;8.32;;;1.10;99.90;;;;;;2096183;28;20016;-68
2021/03/20 00:49:51;;;;;;;32.60;8.70;;;1.10;99.90;;;;;;2097509;28;20017;-68
2021/03/20 00:50:52;;;;;;;24.73;8.02;;;1.10;99.90;;;;;;2101837;28;20089;-68
2021/03/20 00:51:53;;;;;;;27.75;8.23;;;1.10;99.90;;;;;;2113516;28;20023;-68
2021/03/20 00:52:53;;;;;;;20.17;7.95;;;1.10;99.90;;;;;;2101208;28;20090;-69
2021/03/20 00:53:54;;;;;;;24.05;8.43;;;1.10;99.90;;;;;;2099791;28;20190;-69
2021/03/20 00:54:54;;;;;;;19.15;8.63;;;1.10;99.90;;;;;;2102836;28;20391;-68
2021/03/20 00:55:56;;;;;;;33.60;8.77;;;1.00;99.90;;;;;;2095019;28;20589;-68
2021/03/20 00:56:56;;;;;;;18.85;7.65;;;1.10;99.90;;;;;;2097115;28;20023;-68
2021/03/20 00:57:57;;;;;;;20.98;8.48;;;1.00;99.90;;;;;;2096335;28;20029;-69
2021/03/20 00:58:57;;;;;;;26.38;9.10;;;1.10;99.90;;;;;;2094581;28;20106;-67
2021/03/20 00:59:58;;;;;;;23.77;9.10;;;1.10;99.90;;;;;;2089292;28;20021;-68
2021/03/20 01:01:04;;;;;;;27.15;9.00;;;1.10;99.90;;;;;;2103048;28;20566;-67
2021/03/20 01:02:05;;;;;;;20.98;8.35;;;1.20;99.90;;;;;;2106169;28;20499;-69
2021/03/20 01:03:06;;;;;;;25.02;8.02;;;1.20;99.90;;;;;;2106157;28;20051;-69
2021/03/20 01:04:07;;;;;;;19.92;8.20;;;1.20;99.90;;;;;;2110071;28;20039;-68
2021/03/20 01:05:08;;;;;;;21.05;8.98;;;1.30;99.90;;;;;;2096947;28;20441;-67
2021/03/20 01:06:12;;;;;;;24.08;7.32;;;1.40;99.90;;;;;;2096099;28;20503;-67
2021/03/20 01:07:13;;;;;;;21.55;7.90;;;1.40;99.90;;;;;;2104996;28;20387;-67
2021/03/20 01:08:14;;;;;;;31.48;8.07;;;1.40;99.90;;;;;;2089621;28;20021;-67
2021/03/20 01:09:14;;;;;;;23.60;8.00;;;1.40;99.90;;;;;;2099588;28;20024;-67
2021/03/20 01:10:19;;;;;;;27.35;8.35;;;1.40;99.90;;;;;;2092570;28;20021;-68
2021/03/20 01:11:21;;;;;;;26.85;8.15;;;1.50;99.90;;;;;;2103338;28;20032;-67
2021/03/20 01:12:22;;;;;;;;;;;1.50;99.90;;;;;;2096951;28;20607;-67
2021/03/20 01:13:23;;;;;;;23.95;7.65;;;1.50;99.90;;;;;;2096990;28;19979;-67
2021/03/20 01:14:23;;;;;;;21.42;7.78;;;1.50;99.90;;;;;;2088904;28;20041;-67
2021/03/20 01:15:24;;;;;;;20.17;7.70;;;1.50;99.90;;;;;;2088911;28;20021;-67
2021/03/20 01:16:26;;;;;;;21.77;7.35;;;1.50;99.90;;;;;;2096283;28;20495;-66
2021/03/20 01:17:26;;;;;;;22.15;7.90;;;1.50;99.90;;;;;;2098360;28;20081;-66
2021/03/20 01:18:28;;;;;;;28.25;7.75;;;1.40;99.90;;;;;;2105800;28;20028;-66
2021/03/20 01:19:28;;;;;;;32.03;7.53;;;1.50;99.90;;;;;;2101247;28;20016;-66
2021/03/20 01:20:30;;;;;;;26.45;9.13;;;1.50;99.90;;;;;;2105256;28;20496;-66
2021/03/20 01:21:30;;;;;;;32.40;8.83;;;1.50;99.90;;;;;;2104966;28;20035;-67
2021/03/20 01:22:31;;;;;;;27.05;8.07;;;1.50;99.90;;;;;;2097363;28;20274;-66
2021/03/20 01:23:32;;;;;;;27.63;8.07;;;1.40;99.90;;;;;;2098233;28;20020;-66
2021/03/20 01:24:33;;;;;;;24.30;8.98;;;1.50;99.90;;;;;;2088545;28;20041;-66
2021/03/20 01:25:33;;;;;;;26.90;8.32;;;1.50;99.90;;;;;;2097217;28;20536;-66
2021/03/20 01:26:34;;;;;;;30.40;8.48;;;1.50;99.90;;;;;;2097900;28;20490;-67
2021/03/20 01:27:35;;;;;;;29.55;8.70;;;1.60;99.90;;;;;;2097271;28;20121;-67
2021/03/20 01:28:39;;;;;;;28.08;7.80;;;1.60;99.90;;;;;;2101251;28;20104;-67
2021/03/20 01:29:40;;;;;;;24.67;8.75;;;1.70;99.90;;;;;;2105202;28;20574;-67
2021/03/20 01:30:42;;;;;;;31.17;8.25;;;1.80;99.90;;;;;;2105224;28;20035;-67
2021/03/20 01:31:44;;;;;;;27.90;8.98;;;1.80;99.90;;;;;;2098998;28;20039;-67
2021/03/20 01:32:45;;;;;;;22.10;8.07;;;1.80;99.90;;;;;;2090115;28;20032;-67
2021/03/20 01:33:46;;;;;;;23.08;8.20;;;1.90;99.90;;;;;;2101789;28;20031;-67
2021/03/20 01:34:46;;;;;;;24.75;8.13;;;1.90;99.90;;;;;;2104417;28;20048;-67
2021/03/20 01:35:47;;;;;;;27.90;8.63;;;1.80;99.90;;;;;;2105075;28;20077;-67
2021/03/20 01:36:48;;;;;;;27.42;8.40;;;1.80;99.90;;;;;;2105659;28;20118;-67
2021/03/20 01:37:49;;;;;;;27.00;8.30;;;1.80;99.90;;;;;;2113480;28;20063;-67
2021/03/20 01:38:50;;;;;;;29.33;8.52;;;1.80;99.90;;;;;;2099651;28;20051;-67
2021/03/20 01:39:51;;;;;;;29.73;8.95;;;1.80;99.90;;;;;;2096373;28;20551;-67
2021/03/20 01:41:00;;;;;;;24.45;8.23;;;1.80;99.90;;;;;;2088955;28;20382;-67
2021/03/20 01:42:05;;;;;;;31.83;8.50;;;1.70;99.90;;;;;;2100299;28;20449;-67
2021/03/20 01:43:08;;;;;;;23.15;7.97;;;1.70;99.90;;;;;;2091198;28;20021;-67
2021/03/20 01:44:18;;;;;;;28.98;7.80;;;1.70;99.90;;;;;;2103105;28;20090;-67
2021/03/20 01:45:22;;;;;;;30.08;8.60;;;1.70;99.90;;;;;;2093359;28;20124;-67
2021/03/20 01:46:43;;;;;;;21.58;7.07;;;1.70;99.90;;;;;;2102002;28;20034;-67
2021/03/20 01:47:58;;;;;;;30.80;8.02;;;1.70;99.90;;;;;;2089030;28;20013;-66
2021/03/20 01:49:00;;;;;;;18.67;8.10;;;1.60;99.90;;;;;;2098298;28;20081;-66
2021/03/20 01:50:01;;;;;;;25.65;7.75;;;1.60;99.90;;;;;;2113206;28;20165;-66
2021/03/20 01:51:11;;;;;;;29.02;8.27;;;1.60;99.90;;;;;;2105547;28;20062;-66
2021/03/20 01:52:23;;;;;;;24.38;8.38;;;1.60;99.90;;;;;;2095189;28;20016;-66
2021/03/20 01:53:30;;;;;;;18.98;7.68;;;1.70;99.90;;;;;;2088401;28;20036;-66
2021/03/20 01:54:43;;;;;;;32.22;8.73;;;1.80;99.90;;;;;;2096037;28;20371;-67
2021/03/20 01:55:44;;;;;;;32.83;9.25;;;1.80;99.90;;;;;;2097336;28;20020;-66
2021/03/20 01:56:46;;;;;;;20.43;7.67;;;1.80;99.90;;;;;;2105774;28;20020;-66
2021/03/20 01:57:51;;;;;;;27.77;8.38;;;1.80;99.90;;;;;;2105349;28;20262;-66
2021/03/20 01:58:53;;;;;;;28.05;8.25;;;1.80;99.90;;;;;;2111183;28;20119;-66
2021/03/20 01:59:54;;;;;;;32.33;8.32;;;1.70;99.90;;;;;;2104836;28;20035;-66
2021/03/20 02:01:05;;;;;;;27.35;7.95;;;1.70;99.90;;;;;;2101928;28;20024;-66
2021/03/20 02:02:06;;;;;;;23.40;7.70;;;1.70;99.90;;;;;;2093211;28;20566;-65
2021/03/20 02:03:11;;;;;;;22.30;8.18;;;1.60;99.90;;;;;;2089065;28;20109;-66
2021/03/20 02:04:12;;;;;;;23.52;8.15;;;1.60;99.90;;;;;;2100203;28;20021;-66
2021/03/20 02:05:15;;;;;;;25.67;7.45;;;1.60;99.90;;;;;;2095970;28;20640;-66
2021/03/20 02:06:16;;;;;;;20.98;7.50;;;1.60;99.90;;;;;;2103737;28;20012;-66
2021/03/20 02:07:18;;;;;;;28.15;6.97;;;1.50;99.90;;;;;;2105036;28;20008;-67
2021/03/20 02:08:18;;;;;;;22.63;8.00;;;1.50;99.90;;;;;;2094786;28;20021;-66
2021/03/20 02:09:19;;;;;;;31.77;8.20;;;1.50;99.90;;;;;;2100933;28;20262;-66
2021/03/20 02:10:22;;;;;;;22.42;7.10;;;1.50;99.90;;;;;;2105416;28;20048;-66
2021/03/20 02:11:48;;;;;;;21.38;7.45;;;1.60;99.90;;;;;;2104433;28;20039;-66
2021/03/20 02:12:55;;;;;;;18.38;7.25;;;1.60;99.90;;;;;;2094573;28;20570;-66
2021/03/20 02:14:23;;;;;;;23.20;7.50;;;1.60;99.90;;;;;;2088914;28;20243;-66
2021/03/20 02:15:31;;;;;;;17.85;6.93;;;1.70;99.90;;;;;;2096580;28;20060;-66
2021/03/20 02:16:43;;;;;;;32.72;7.35;;;1.70;99.90;;;;;;2096859;28;20188;-66
2021/03/20 02:17:49;;;;;;;;;;;1.70;99.90;;;;;;2100182;28;20399;-66
2021/03/20 02:19:12;;;;;;;23.13;6.32;;;1.70;99.90;;;;;;2098887;28;19908;-66
2021/03/20 02:20:27;;;;;;;26.90;7.20;;;1.70;99.90;;;;;;2088903;28;20104;-66
2021/03/20 02:21:38;;;;;;;22.92;7.22;;;1.70;99.90;;;;;;2089930;28;20021;-66
2021/03/20 02:23:07;;;;;;;15.77;8.02;;;1.80;99.90;;;;;;2096724;28;20029;-66
2021/03/20 02:24:26;;;;;;;20.92;7.20;;;1.80;99.90;;;;;;2088854;28;20071;-66
2021/03/20 02:25:53;;;;;;;27.85;7.68;;;1.80;99.90;;;;;;2092048;28;20964;-66
2021/03/20 02:27:14;;;;;;;25.10;7.75;;;1.70;99.90;;;;;;2097393;28;20062;-66
2021/03/20 02:28:33;;;;;;;24.35;7.85;;;1.70;99.90;;;;;;2094015;28;20032;-66
2021/03/20 02:29:42;;;;;;;22.13;7.20;;;1.70;99.90;;;;;;2088830;28;20028;-66
2021/03/20 02:31:06;;;;;;;19.45;7.38;;;1.60;99.90;;;;;;2104669;28;20454;-66
2021/03/20 02:32:31;;;;;;;27.17;8.05;;;1.60;99.90;;;;;;2103110;28;20020;-66
2021/03/20 02:33:54;;;;;;;25.38;7.93;;;1.60;99.90;;;;;;2089418;28;20029;-66
2021/03/20 02:35:13;;;;;;;25.58;7.70;;;1.60;99.90;;;;;;2091420;28;20460;-66
2021/03/20 02:36:39;;;;;;;34.90;7.43;;;1.70;99.90;;;;;;2104848;28;20099;-67
2021/03/20 02:38:19;;;;;;;19.10;7.03;;;1.60;99.90;;;;;;2091295;28;20396;-65
2021/03/20 02:40:01;;;;;;;29.90;7.40;;;1.70;99.90;;;;;;2088502;28;20122;-66
2021/03/20 02:41:31;;;;;;;23.50;6.97;;;1.60;99.90;;;;;;2060915;28;20035;-65
2021/03/20 02:43:02;;;;;;;23.85;7.95;;;1.70;99.90;;;;;;2085160;28;20031;-66
2021/03/20 02:44:20;;;;;;;19.88;6.85;;;1.60;99.90;;;;;;2080387;28;21307;-66
2021/03/20 02:45:40;;;;;;;22.05;7.35;;;1.60;99.90;;;;;;2085148;28;20034;-66
2021/03/20 02:46:41;;;;;;;23.05;7.45;;;1.60;99.90;;;;;;2101900;28;20024;-66
2021/03/20 02:48:12;;;;;;;18.67;7.63;;;1.60;99.90;;;;;;2096083;28;20028;-66
2021/03/20 02:49:17;;;;;;;17.90;7.90;;;1.60;99.90;;;;;;2092783;28;20032;-66
2021/03/20 02:50:25;;;;;;;25.85;7.60;;;1.60;99.90;;;;;;2089867;28;20021;-65
2021/03/20 02:51:49;;;;;;;25.67;7.78;;;1.60;99.90;;;;;;2085922;28;20032;-66
2021/03/20 02:53:02;;;;;;;32.45;9.32;;;1.70;99.90;;;;;;2088098;28;20021;-66
2021/03/20 02:54:09;;;;;;;17.38;7.22;;;1.70;99.90;;;;;;2088708;28;20070;-66
2021/03/20 02:55:25;;;;;;;21.50;7.40;;;1.70;99.90;;;;;;2096840;28;20079;-66
2021/03/20 02:56:33;;;;;;;24.45;8.45;;;1.80;99.90;;;;;;2088071;28;20053;-66
2021/03/20 02:57:40;;;;;;;29.60;7.97;;;1.80;99.90;;;;;;2092098;28;20119;-66
2021/03/20 02:58:52;;;;;;;27.33;7.78;;;1.80;99.90;;;;;;2088256;28;20052;-65
2021/03/20 03:00:05;;;;;;;26.20;8.50;;;1.80;99.90;;;;;;2092007;28;20017;-66
2021/03/20 03:01:14;;;;;;;16.83;7.30;;;1.80;99.90;;;;;;2093507;28;20048;-66
2021/03/20 03:02:17;;;;;;;28.38;7.68;;;1.90;99.90;;;;;;2096920;28;20020;-65
2021/03/20 03:03:20;;;;;;;30.38;7.93;;;1.90;99.90;;;;;;2087311;28;20049;-66
2021/03/20 03:04:24;;;;;;;29.35;8.57;;;1.90;99.90;;;;;;2081473;28;20049;-66
2021/03/20 03:05:33;;;;;;;33.50;8.93;;;1.90;99.90;;;;;;2082920;28;20132;-65
2021/03/20 03:06:40;;;;;;;30.77;7.75;;;1.90;99.90;;;;;;2080880;28;20159;-66
2021/03/20 03:07:57;;;;;;;19.33;7.18;;;1.90;99.90;;;;;;2100296;28;20047;-66
2021/03/20 03:09:12;;;;;;;21.92;7.88;;;2.00;99.90;;;;;;2102528;28;20109;-66
2021/03/20 03:10:34;;;;;;;35.03;8.10;;;2.00;99.90;;;;;;2090263;28;20485;-67
2021/03/20 03:12:03;;;;;;;26.60;7.65;;;2.00;99.90;;;;;;2080347;28;20111;-65
2021/03/20 03:13:09;;;;;;;19.95;6.80;;;2.00;99.90;;;;;;2078093;28;20064;-66
2021/03/20 03:14:31;;;;;;;24.55;8.05;;;2.00;99.90;;;;;;2083875;28;20500;-65
2021/03/20 03:15:36;;;;;;;19.73;7.38;;;2.00;99.90;;;;;;2104622;28;20016;-65
2021/03/20 03:16:44;;;;;;;28.65;7.82;;;1.90;99.90;;;;;;2102415;28;20051;-66
2021/03/20 03:17:50;;;;;;;19.83;7.68;;;1.90;99.90;;;;;;2091959;28;20028;-66
2021/03/20 03:18:58;;;;;;;19.58;7.45;;;1.90;99.90;;;;;;2096935;28;20035;-66
2021/03/20 03:20:25;;;;;;;18.92;7.25;;;1.90;99.90;;;;;;2084106;28;20389;-66
2021/03/20 03:21:29;;;;;;;25.85;7.10;;;2.00;99.90;;;;;;2091796;28;20528;-65
2021/03/20 03:22:43;;;;;;;32.72;7.35;;;2.00;99.90;;;;;;2079332;28;20032;-66
2021/03/20 03:23:44;;;;;;;24.15;7.55;;;2.00;99.90;;;;;;2086195;28;20029;-65
2021/03/20 03:24:46;;;;;;;17.90;7.38;;;2.00;99.90;;;;;;2081933;28;20105;-65
2021/03/20 03:25:49;;;;;;;;;;;1.90;99.90;;;;;;2091815;28;20020;-65
2021/03/20 03:26:56;;;;;;;21.98;7.00;;;1.90;99.90;;;;;;2091330;28;19918;-65
2021/03/20 03:28:00;;;;;;;25.58;7.35;;;1.90;99.90;;;;;;2092565;28;20108;-65
2021/03/20 03:29:17;;;;;;;18.73;7.28;;;1.90;99.90;;;;;;2089813;28;20119;-65
2021/03/20 03:30:21;;;;;;;20.33;7.35;;;1.80;99.90;;;;;;2085521;28;20103;-66
2021/03/20 03:31:51;;;;;;;30.80;7.68;;;1.80;99.90;;;;;;2087765;28;20028;-65
2021/03/20 03:32:59;;;;;;;22.65;7.65;;;1.80;99.90;;;;;;2090340;28;20033;-66
2021/03/20 03:34:14;;;;;;;28.17;7.88;;;1.80;99.90;;;;;;2095556;28;20028;-67
2021/03/20 03:35:22;;;;;;;33.00;8.20;;;1.80;99.90;;;;;;2104343;28;20013;-65
2021/03/20 03:36:24;;;;;;;25.75;7.38;;;1.80;99.90;;;;;;2103387;28;20032;-65
2021/03/20 03:37:41;;;;;;;30.50;8.20;;;1.80;99.90;;;;;;2091875;28;20439;-65
2021/03/20 03:38:55;;;;;;;25.02;8.50;;;1.80;99.90;;;;;;2087901;28;20638;-65
2021/03/20 03:40:01;;;;;;;31.65;7.55;;;1.80;99.90;;;;;;2081715;28;20032;-65
2021/03/20 03:41:16;;;;;;;27.35;7.50;;;1.80;99.90;;;;;;2079454;28;20026;-65
2021/03/20 03:42:19;;;;;;;21.05;7.65;;;1.80;99.90;;;;;;2090325;28;20024;-65
2021/03/20 03:43:20;;;;;;;19.58;8.13;;;1.80;99.90;;;;;;2104251;28;20573;-65
2021/03/20 03:44:20;;;;;;;25.00;7.88;;;1.80;99.90;;;;;;2096097;28;20112;-65
2021/03/20 03:45:23;;;;;;;31.60;8.63;;;1.80;99.90;;;;;;2095812;28;20020;-65
2021/03/20 03:46:25;;;;;;;;;;;1.90;99.90;;;;;;2095958;28;20111;-65
2021/03/20 03:47:29;;;;;;;23.52;7.60;;;1.90;99.90;;;;;;2083774;28;19913;-65
2021/03/20 03:48:30;;;;;;;21.13;7.72;;;1.90;99.90;;;;;;2081695;28;20040;-65
2021/03/20 03:49:30;;;;;;;25.88;8.77;;;1.90;99.90;;;;;;2097810;28;20112;-65
2021/03/20 03:50:35;;;;;;;37.72;9.00;;;1.90;99.90;;;;;;2097215;28;20562;-65
2021/03/20 03:51:36;;;;;;;23.75;7.40;;;1.90;99.90;;;;;;2097602;28;20021;-65
2021/03/20 03:52:37;;;;;;;19.23;7.78;;;1.90;99.90;;;;;;2097345;28;20029;-65
2021/03/20 03:53:38;;;;;;;23.92;7.78;;;1.90;99.90;;;;;;2090346;28;20779;-65
2021/03/20 03:54:40;;;;;;;22.00;7.22;;;1.90;99.90;;;;;;2098058;28;20527;-66
2021/03/20 03:55:42;;;;;;;28.13;8.30;;;1.90;99.90;;;;;;2093932;28;20017;-66
2021/03/20 03:56:42;;;;;;;36.17;7.53;;;1.90;99.90;;;;;;2081502;28;20025;-66
2021/03/20 03:58:19;;;;;;;27.58;8.15;;;1.90;99.90;;;;;;2091323;28;20831;-65
2021/03/20 04:00:02;;;;;;;23.00;8.13;;;2.10;99.90;;;;;;2086065;28;20592;-65
2021/03/20 04:01:27;;;;;;;26.00;7.90;;;2.20;99.90;;;;;;2094151;28;20059;-65
2021/03/20 04:02:58;;;;;;;25.90;7.93;;;2.20;99.90;;;;;;2102226;28;20118;-65
2021/03/20 04:04:01;;;;;;;22.42;8.65;;;2.40;99.90;;;;;;2098318;28;20029;-65
2021/03/20 04:05:10;;;;;;;24.50;7.80;;;2.40;99.90;;;;;;2095785;28;20062;-66
2021/03/20 04:06:33;;;;;;;29.48;8.10;;;2.30;99.90;;;;;;2082175;28;20107;-66
2021/03/20 04:07:40;;;;;;;28.15;8.70;;;2.40;99.90;;;;;;2087841;28;20024;-65
2021/03/20 04:09:07;;;;;;;20.80;8.32;;;2.40;99.90;;;;;;2097223;28;20028;-65
2021/03/20 04:10:16;;;;;;;23.77;8.15;;;2.40;99.90;;;;;;2089572;28;20092;-65
2021/03/20 04:11:22;;;;;;;29.25;8.05;;;2.40;99.90;;;;;;2095046;28;20032;-65
2021/03/20 04:12:42;;;;;;;29.67;8.35;;;2.30;99.90;;;;;;2097395;28;20470;-65
2021/03/20 04:14:04;;;;;;;27.90;8.50;;;2.20;99.90;;;;;;2090535;28;20082;-66
2021/03/20 04:15:12;;;;;;;24.10;8.27;;;2.20;99.90;;;;;;2081504;28;20021;-65
2021/03/20 04:16:17;;;;;;;25.42;8.15;;;2.20;99.90;;;;;;2086662;28;20033;-66
2021/03/20 04:17:44;;;;;;;20.15;7.88;;;2.20;99.90;;;;;;2081452;28;20474;-65
2021/03/20 04:19:26;;;;;;;28.40;8.35;;;2.20;99.90;;;;;;2087941;28;20420;-65
2021/03/20 04:20:54;;;;;;;23.48;9.27;;;2.20;99.90;;;;;;2085138;28;20060;-65
2021/03/20 04:22:02;;;;;;;27.45;8.20;;;2.30;99.90;;;;;;2085737;28;20204;-66
2021/03/20 04:23:27;;;;;;;22.40;8.05;;;2.30;99.90;;;;;;2086748;28;20120;-65
2021/03/20 04:24:38;;;;;;;30.48;8.23;;;2.30;99.90;;;;;;2089135;28;20029;-65
2021/03/20 04:26:18;;;;;;;24.92;8.18;;;2.40;99.90;;;;;;2081540;28;20025;-65
2021/03/20 04:27:24;;;;;;;31.45;8.27;;;2.40;99.90;;;;;;2097310;28;20025;-65
2021/03/20 04:28:42;;;;;;;20.80;8.60;;;2.40;99.90;;;;;;2092621;28;20393;-66
2021/03/20 04:30:04;;;;;;;25.67;8.10;;;2.40;99.90;;;;;;2091050;28;22275;-65
2021/03/20 04:31:20;;;;;;;19.92;8.88;;;2.40;99.90;;;;;;2086312;28;20639;-65
2021/03/20 04:32:32;;;;;;;30.13;7.75;;;2.40;99.90;;;;;;2082628;28;20362;-65
2021/03/20 04:33:42;;;;;;;25.80;8.68;;;2.40;99.90;;;;;;2089419;28;20619;-65
2021/03/20 04:34:48;;;;;;;27.05;7.53;;;2.40;99.90;;;;;;2088942;28;20496;-65
2021/03/20 04:35:57;;;;;;;26.80;8.27;;;2.40;99.90;;;;;;2095152;28;20031;-65
2021/03/20 04:37:11;;;;;;;21.95;8.27;;;2.40;99.90;;;;;;2086093;28;20031;-65
2021/03/20 04:38:12;;;;;;;23.50;8.13;;;2.40;99.90;;;;;;2087371;28;20089;-65
2021/03/20 04:39:16;;;;;;;32.70;9.18;;;2.40;99.90;;;;;;2097839;28;20044;-65
2021/03/20 04:40:39;;;;;;;26.00;8.30;;;2.40;99.90;;;;;;2095234;28;20048;-65
2021/03/20 04:41:40;;;;;;;20.02;7.93;;;2.40;99.90;;;;;;2089802;28;20021;-66
2021/03/20 04:42:41;;;;;;;22.50;8.75;;;2.40;99.90;;;;;;2092524;28;20051;-65
2021/03/20 04:43:43;;;;;;;28.77;8.10;;;2.40;99.90;;;;;;2082229;28;20607;-65
2021/03/20 04:44:43;;;;;;;21.25;8.02;;;2.40;99.90;;;;;;2080626;28;20437;-66
2021/03/20 04:45:49;;;;;;;31.27;8.65;;;2.40;99.90;;;;;;2092148;28;20044;-66
2021/03/20 04:46:50;;;;;;;18.60;7.80;;;2.30;99.90;;;;;;2104586;28;20047;-66
2021/03/20 04:47:51;;;;;;;26.65;8.23;;;2.30;99.90;;;;;;2088697;28;20035;-66
2021/03/20 04:49:07;;;;;;;26.85;8.18;;;2.30;99.90;;;;;;2092318;28;20017;-66
2021/03/20 04:50:18;;;;;;;18.45;7.82;;;2.30;99.90;;;;;;2095353;28;20028;-65
2021/03/20 04:51:25;;;;;;;25.25;8.88;;;2.30;99.90;;;;;;2079794;28;20033;-65
2021/03/20 04:52:41;;;;;;;26.50;8.38;;;2.30;99.90;;;;;;2089200;28;20028;-66
2021/03/20 04:53:42;;;;;;;26.13;8.70;;;2.30;99.90;;;;;;2088794;28;20114;-65
2021/03/20 04:54:43;;;;;;;27.42;8.75;;;2.30;99.90;;;;;;2105119;28;20028;-66
2021/03/20 04:55:44;;;;;;;30.70;9.30;;;2.30;99.90;;;;;;2101037;28;20039;-66
2021/03/20 04:56:58;;;;;;;25.95;8.38;;;2.40;99.90;;;;;;2089444;28;20025;-66
2021/03/20 04:58:24;;;;;;;27.17;8.52;;;2.40;99.90;;;;;;2081169;28;20102;-65
2021/03/20 05:00:04;;;;;;;27.17;8.60;;;2.30;99.90;;;;;;2100683;28;20040;-66
2021/03/20 05:01:24;;;;;;;26.90;8.43;;;2.30;99.90;;;;;;2088848;28;20527;-67
2021/03/20 05:02:48;;;;;;;22.58;7.68;;;2.20;99.90;;;;;;2087210;28;20471;-66
2021/03/20 05:04:02;;;;;;;28.65;8.30;;;2.10;99.90;;;;;;2097405;28;20079;-66
2021/03/20 05:05:28;;;;;;;29.02;8.20;;;2.10;99.90;;;;;;2092390;28;20032;-65
2021/03/20 05:06:29;;;;;;;27.50;8.15;;;2.00;99.90;;;;;;2081046;28;20416;-65
2021/03/20 05:07:32;;;;;;;27.58;8.18;;;2.00;99.90;;;;;;2080812;28;21159;-65
2021/03/20 05:08:35;;;;;;;23.70;8.45;;;2.00;99.90;;;;;;2081072;28;20033;-65
2021/03/20 05:09:36;;;;;;;24.20;8.25;;;2.00;99.90;;;;;;2083920;28;20075;-65
2021/03/20 05:10:55;;;;;;;30.10;8.38;;;2.00;99.90;;;;;;2086985;28;20104;-65
2021/03/20 05:12:09;;;;;;;24.33;7.88;;;2.00;99.90;;;;;;2097537;28;20476;-66
2021/03/20 05:13:39;;;;;;;29.17;8.82;;;2.00;99.90;;;;;;2097270;28;20040;-66
2021/03/20 05:14:52;;;;;;;21.55;7.82;;;2.00;99.90;;;;;;2088391;28;20029;-67
2021/03/20 05:16:23;;;;;;;27.15;8.50;;;2.00;99.90;;;;;;2089104;28;20153;-65
2021/03/20 05:17:24;;;;;;;27.90;8.60;;;2.10;99.90;;;;;;2091795;28;20029;-66
2021/03/20 05:18:24;;;;;;;24.55;8.57;;;2.10;99.90;;;;;;2097400;28;20032;-65
2021/03/20 05:19:27;;;;;;;28.35;8.32;;;2.10;99.90;;;;;;2101663;28;20024;-65
2021/03/20 05:20:28;;;;;;;23.77;8.25;;;2.20;99.90;;;;;;2094284;28;20095;-66
2021/03/20 05:21:40;;;;;;;21.13;7.95;;;2.20;99.90;;;;;;2087383;28;20052;-66
2021/03/20 05:22:40;;;;;;;32.38;9.02;;;2.10;99.90;;;;;;2085937;28;20017;-66
2021/03/20 05:23:41;;;;;;;24.08;9.57;;;2.10;99.90;;;;;;2089321;28;20025;-65
2021/03/20 05:24:42;;;;;;;32.95;8.95;;;2.10;99.90;;;;;;2081208;28;20068;-66
2021/03/20 05:25:43;;;;;;;20.98;8.27;;;2.00;99.90;;;;;;2088377;28;20058;-65
2021/03/20 05:26:44;;;;;;;34.80;9.13;;;2.00;99.90;;;;;;2094921;28;20065;-65
2021/03/20 05:27:44;;;;;;;24.83;8.32;;;2.00;99.90;;;;;;2089711;28;20025;-65
2021/03/20 05:28:45;;;;;;;22.70;7.82;;;2.00;99.90;;;;;;2101369;28;20026;-65
2021/03/20 05:29:46;;;;;;;25.65;9.85;;;1.90;99.90;;;;;;2095689;28;20024;-65
2021/03/20 05:30:47;;;;;;;18.95;8.30;;;1.90;99.90;;;;;;2088756;28;20048;-66
2021/03/20 05:31:48;;;;;;;23.95;8.13;;;1.90;99.90;;;;;;2091226;28;20541;-66
2021/03/20 05:32:48;;;;;;;31.20;8.35;;;1.80;99.90;;;;;;2090976;28;20923;-66
2021/03/20 05:33:50;;;;;;;20.55;8.15;;;1.90;99.90;;;;;;2086808;28;20020;-66
2021/03/20 05:34:53;;;;;;;21.80;8.20;;;1.80;99.90;;;;;;2081042;28;20029;-66
2021/03/20 05:35:54;;;;;;;20.80;7.63;;;1.70;99.90;;;;;;2104964;28;20058;-65
2021/03/20 05:36:55;;;;;;;25.73;8.65;;;1.70;99.90;;;;;;2104221;28;20125;-65
2021/03/20 05:37:56;;;;;;;31.55;8.57;;;1.70;99.90;;;;;;2080976;28;20061;-66
2021/03/20 05:38:57;;;;;;;26.02;8.68;;;1.60;99.90;;;;;;2091641;28;20028;-65
2021/03/20 05:39:57;;;;;;;25.55;9.20;;;1.60;99.90;;;;;;2081878;28;20508;-65
2021/03/20 05:41:03;;;;;;;18.27;8.15;;;1.60;99.90;;;;;;2087388;28;20545;-65
2021/03/20 05:42:25;;;;;;;24.13;8.90;;;1.50;99.90;;;;;;2084640;28;20027;-65
2021/03/20 05:44:24;;;;;;;20.50;7.45;;;1.50;99.90;;;;;;2089601;28;20025;-66
2021/03/20 05:45:31;;;;;;;19.70;7.80;;;1.50;99.90;;;;;;2085756;28;20017;-65
2021/03/20 05:46:50;;;;;;;27.38;8.35;;;1.40;99.90;;;;;;2079111;28;20163;-65
2021/03/20 05:48:23;;;;;;;30.40;8.02;;;1.40;99.90;;;;;;2078146;28;20055;-65
2021/03/20 05:49:35;;;;;;;24.80;8.35;;;1.40;99.90;;;;;;2079026;28;20114;-65
2021/03/20 05:51:13;;;;;;;27.33;8.52;;;1.30;99.90;;;;;;2083944;28;20172;-65
2021/03/20 05:52:44;;;;;;;17.25;7.70;;;1.30;99.90;;;;;;2086862;28;20032;-64
2021/03/20 05:53:53;;;;;;;23.48;7.72;;;1.20;99.90;;;;;;2104714;28;20024;-65
2021/03/20 05:55:22;;;;;;;24.35;8.60;;;1.20;99.90;;;;;;2102014;28;20031;-64
2021/03/20 05:56:40;;;;;;;18.92;7.85;;;1.20;99.90;;;;;;2084608;28;20060;-64